CheckWX is a tool to help pilots better visualize weather data.  It is not intended as a substitute for an official pre-flight weather briefing.

12:02:02 UTC

KIPL METAR
Imperial County Airport
Imperial, California, USA
Current

9 mins ago

KIPL 251153Z AUTO 26007KT 10SM CLR 11/M01 A3007 RMK AO2 SLP181 T01111006 10178 20094 56008
Observed
Mar-25 @ 11:53 UTC
Wind
  • 260° at 7 KTS
Visibility
10 SM
Flight Rules
VFR
Cloud Levels
  • Clear skies
Temperature
11°C / 52°F
Dewpoint
-1°C / 30°F
Humidity
44%
Altimeter
30.07" Hg
Pressure
1018.1 hPa
Previous

1 hour ago

KIPL 251053Z AUTO 27005KT 10SM CLR 11/01 A3007 RMK AO2 SLP182 T01060006
Observed
Mar-25 @ 10:53 UTC
Wind
  • 270° at 5 KTS
Visibility
10 SM
Flight Rules
VFR
Cloud Levels
  • Clear skies
Temperature
11°C / 52°F
Dewpoint
C / 34°F
Humidity
50%
Altimeter
30.07" Hg
Pressure
1018.2 hPa
Previous

2 hours ago

KIPL 250953Z AUTO 27004KT 10SM CLR 12/01 A3008 RMK AO2 SLP184 T01170006
Observed
Mar-25 @ 09:53 UTC
Wind
  • 270° at 4 KTS
Visibility
10 SM
Flight Rules
VFR
Cloud Levels
  • Clear skies
Temperature
12°C / 54°F
Dewpoint
C / 34°F
Humidity
47%
Altimeter
30.08" Hg
Pressure
1018.4 hPa